sensor_id;sensor_type;location;lat;lon;timestamp;P1;durP1;ratioP1;P2;durP2;ratioP2
68178;SDS011;69812;42.632;23.440;2023-09-30T00:00:43;10.55;;;4.85;;
68178;SDS011;69812;42.632;23.440;2023-09-30T00:03:09;7.53;;;4.93;;
68178;SDS011;69812;42.632;23.440;2023-09-30T00:05:36;10.30;;;5.00;;
68178;SDS011;69812;42.632;23.440;2023-09-30T00:08:02;9.05;;;5.10;;
68178;SDS011;69812;42.632;23.440;2023-09-30T00:10:28;11.60;;;5.57;;
68178;SDS011;69812;42.632;23.440;2023-09-30T00:12:57;11.52;;;4.95;;
68178;SDS011;69812;42.632;23.440;2023-09-30T00:15:23;11.45;;;5.07;;
68178;SDS011;69812;42.632;23.440;2023-09-30T00:17:49;13.88;;;5.10;;
68178;SDS011;69812;42.632;23.440;2023-09-30T00:20:14;14.10;;;6.13;;
68178;SDS011;69812;42.632;23.440;2023-09-30T00:22:40;11.15;;;5.05;;
68178;SDS011;69812;42.632;23.440;2023-09-30T00:25:06;11.85;;;5.40;;
68178;SDS011;69812;42.632;23.440;2023-09-30T00:27:32;12.80;;;5.72;;
68178;SDS011;69812;42.632;23.440;2023-09-30T00:29:58;8.77;;;5.70;;
68178;SDS011;69812;42.632;23.440;2023-09-30T00:32:23;11.27;;;5.25;;
68178;SDS011;69812;42.632;23.440;2023-09-30T00:34:49;10.98;;;5.50;;
68178;SDS011;69812;42.632;23.440;2023-09-30T00:37:14;9.85;;;5.40;;
68178;SDS011;69812;42.632;23.440;2023-09-30T00:39:39;10.13;;;5.70;;
68178;SDS011;69812;42.632;23.440;2023-09-30T00:42:05;16.92;;;5.28;;
68178;SDS011;69812;42.632;23.440;2023-09-30T00:44:31;14.13;;;5.95;;
68178;SDS011;69812;42.632;23.440;2023-09-30T00:46:56;10.85;;;5.32;;
68178;SDS011;69812;42.632;23.440;2023-09-30T00:49:22;10.20;;;5.28;;
68178;SDS011;69812;42.632;23.440;2023-09-30T00:51:51;10.77;;;5.78;;
68178;SDS011;69812;42.632;23.440;2023-09-30T00:54:16;11.23;;;5.68;;
68178;SDS011;69812;42.632;23.440;2023-09-30T00:56:43;9.50;;;5.60;;
68178;SDS011;69812;42.632;23.440;2023-09-30T00:59:11;8.25;;;5.15;;
68178;SDS011;69812;42.632;23.440;2023-09-30T01:01:43;10.82;;;5.53;;
68178;SDS011;69812;42.632;23.440;2023-09-30T01:04:10;9.43;;;5.40;;
68178;SDS011;69812;42.632;23.440;2023-09-30T01:06:36;11.75;;;5.07;;
68178;SDS011;69812;42.632;23.440;2023-09-30T01:09:02;9.85;;;5.65;;
68178;SDS011;69812;42.632;23.440;2023-09-30T01:11:28;14.55;;;5.55;;
68178;SDS011;69812;42.632;23.440;2023-09-30T01:13:53;10.23;;;5.20;;
68178;SDS011;69812;42.632;23.440;2023-09-30T01:16:19;8.50;;;4.90;;
68178;SDS011;69812;42.632;23.440;2023-09-30T01:18:45;12.23;;;5.45;;
68178;SDS011;69812;42.632;23.440;2023-09-30T01:21:10;13.93;;;5.10;;
68178;SDS011;69812;42.632;23.440;2023-09-30T01:23:36;11.55;;;5.70;;
68178;SDS011;69812;42.632;23.440;2023-09-30T01:26:02;9.88;;;5.30;;
68178;SDS011;69812;42.632;23.440;2023-09-30T01:28:29;10.60;;;5.28;;
68178;SDS011;69812;42.632;23.440;2023-09-30T01:30:55;14.50;;;5.65;;
68178;SDS011;69812;42.632;23.440;2023-09-30T01:33:21;11.02;;;5.18;;
68178;SDS011;69812;42.632;23.440;2023-09-30T01:35:47;10.82;;;5.00;;
68178;SDS011;69812;42.632;23.440;2023-09-30T01:38:12;8.38;;;5.07;;
68178;SDS011;69812;42.632;23.440;2023-09-30T01:40:38;10.45;;;5.20;;
68178;SDS011;69812;42.632;23.440;2023-09-30T01:43:03;9.13;;;5.20;;
68178;SDS011;69812;42.632;23.440;2023-09-30T01:45:32;12.13;;;5.60;;
68178;SDS011;69812;42.632;23.440;2023-09-30T01:47:57;12.50;;;5.78;;
68178;SDS011;69812;42.632;23.440;2023-09-30T01:50:22;11.82;;;5.70;;
68178;SDS011;69812;42.632;23.440;2023-09-30T01:52:48;10.65;;;5.90;;
68178;SDS011;69812;42.632;23.440;2023-09-30T01:55:13;13.93;;;5.82;;
68178;SDS011;69812;42.632;23.440;2023-09-30T01:57:39;9.35;;;5.00;;
68178;SDS011;69812;42.632;23.440;2023-09-30T02:00:05;12.48;;;6.03;;
68178;SDS011;69812;42.632;23.440;2023-09-30T02:02:34;11.77;;;5.97;;
68178;SDS011;69812;42.632;23.440;2023-09-30T02:05:00;11.30;;;5.72;;
68178;SDS011;69812;42.632;23.440;2023-09-30T02:07:25;14.15;;;5.72;;
68178;SDS011;69812;42.632;23.440;2023-09-30T02:09:50;11.32;;;5.70;;
68178;SDS011;69812;42.632;23.440;2023-09-30T02:12:16;11.80;;;5.68;;
68178;SDS011;69812;42.632;23.440;2023-09-30T02:14:43;11.20;;;5.47;;
68178;SDS011;69812;42.632;23.440;2023-09-30T02:17:11;12.13;;;5.47;;
68178;SDS011;69812;42.632;23.440;2023-09-30T02:19:38;13.40;;;5.38;;
68178;SDS011;69812;42.632;23.440;2023-09-30T02:22:06;13.48;;;6.15;;
68178;SDS011;69812;42.632;23.440;2023-09-30T02:24:32;11.23;;;6.25;;
68178;SDS011;69812;42.632;23.440;2023-09-30T02:26:58;10.90;;;6.25;;
68178;SDS011;69812;42.632;23.440;2023-09-30T02:29:23;11.43;;;5.60;;
68178;SDS011;69812;42.632;23.440;2023-09-30T02:31:49;9.23;;;5.97;;
68178;SDS011;69812;42.632;23.440;2023-09-30T02:34:14;12.75;;;6.10;;
68178;SDS011;69812;42.632;23.440;2023-09-30T02:36:40;10.77;;;6.22;;
68178;SDS011;69812;42.632;23.440;2023-09-30T02:39:07;17.05;;;6.93;;
68178;SDS011;69812;42.632;23.440;2023-09-30T02:41:34;13.43;;;6.47;;
68178;SDS011;69812;42.632;23.440;2023-09-30T02:44:00;14.27;;;6.05;;
68178;SDS011;69812;42.632;23.440;2023-09-30T02:46:33;13.02;;;6.03;;
68178;SDS011;69812;42.632;23.440;2023-09-30T02:49:00;14.80;;;6.35;;
68178;SDS011;69812;42.632;23.440;2023-09-30T02:51:26;11.73;;;6.32;;
68178;SDS011;69812;42.632;23.440;2023-09-30T02:53:51;16.10;;;6.40;;
68178;SDS011;69812;42.632;23.440;2023-09-30T02:56:17;12.35;;;6.72;;
68178;SDS011;69812;42.632;23.440;2023-09-30T02:58:45;12.63;;;6.18;;
68178;SDS011;69812;42.632;23.440;2023-09-30T03:01:13;11.82;;;6.18;;
68178;SDS011;69812;42.632;23.440;2023-09-30T03:03:41;12.75;;;6.07;;
68178;SDS011;69812;42.632;23.440;2023-09-30T03:06:09;15.93;;;6.10;;
68178;SDS011;69812;42.632;23.440;2023-09-30T03:08:35;12.43;;;6.38;;
68178;SDS011;69812;42.632;23.440;2023-09-30T03:11:00;14.00;;;6.55;;
68178;SDS011;69812;42.632;23.440;2023-09-30T03:13:26;12.75;;;6.38;;
68178;SDS011;69812;42.632;23.440;2023-09-30T03:15:52;14.52;;;6.53;;
68178;SDS011;69812;42.632;23.440;2023-09-30T03:18:17;12.05;;;5.90;;
68178;SDS011;69812;42.632;23.440;2023-09-30T03:20:47;16.98;;;6.85;;
68178;SDS011;69812;42.632;23.440;2023-09-30T03:23:15;18.05;;;6.95;;
68178;SDS011;69812;42.632;23.440;2023-09-30T03:25:40;14.82;;;6.25;;
68178;SDS011;69812;42.632;23.440;2023-09-30T03:28:07;14.93;;;6.15;;
68178;SDS011;69812;42.632;23.440;2023-09-30T03:30:32;13.90;;;6.45;;
68178;SDS011;69812;42.632;23.440;2023-09-30T03:32:58;13.55;;;6.88;;
68178;SDS011;69812;42.632;23.440;2023-09-30T03:35:26;13.43;;;5.60;;
68178;SDS011;69812;42.632;23.440;2023-09-30T03:37:51;12.68;;;6.40;;
68178;SDS011;69812;42.632;23.440;2023-09-30T03:40:17;14.40;;;6.32;;
68178;SDS011;69812;42.632;23.440;2023-09-30T03:42:48;15.23;;;6.57;;
68178;SDS011;69812;42.632;23.440;2023-09-30T03:45:16;15.05;;;6.65;;
68178;SDS011;69812;42.632;23.440;2023-09-30T03:47:43;13.38;;;6.78;;
68178;SDS011;69812;42.632;23.440;2023-09-30T03:50:08;12.52;;;6.45;;
68178;SDS011;69812;42.632;23.440;2023-09-30T03:52:39;13.20;;;6.50;;
68178;SDS011;69812;42.632;23.440;2023-09-30T03:55:12;13.77;;;6.50;;
68178;SDS011;69812;42.632;23.440;2023-09-30T03:57:39;14.85;;;7.10;;
68178;SDS011;69812;42.632;23.440;2023-09-30T04:00:05;12.40;;;6.70;;
68178;SDS011;69812;42.632;23.440;2023-09-30T04:02:31;14.30;;;6.72;;
68178;SDS011;69812;42.632;23.440;2023-09-30T04:04:57;13.50;;;6.65;;
68178;SDS011;69812;42.632;23.440;2023-09-30T04:07:24;12.52;;;6.70;;
68178;SDS011;69812;42.632;23.440;2023-09-30T04:09:53;12.63;;;6.47;;
68178;SDS011;69812;42.632;23.440;2023-09-30T04:12:19;16.38;;;6.75;;
68178;SDS011;69812;42.632;23.440;2023-09-30T04:14:45;14.20;;;6.57;;
68178;SDS011;69812;42.632;23.440;2023-09-30T04:17:10;10.63;;;6.88;;
68178;SDS011;69812;42.632;23.440;2023-09-30T04:19:36;16.10;;;7.53;;
68178;SDS011;69812;42.632;23.440;2023-09-30T04:22:01;13.32;;;6.60;;
68178;SDS011;69812;42.632;23.440;2023-09-30T04:24:26;14.48;;;6.82;;
68178;SDS011;69812;42.632;23.440;2023-09-30T04:29:22;20.98;;;6.53;;
68178;SDS011;69812;42.632;23.440;2023-09-30T04:31:48;17.08;;;7.47;;
68178;SDS011;69812;42.632;23.440;2023-09-30T04:34:14;12.80;;;6.93;;
68178;SDS011;69812;42.632;23.440;2023-09-30T04:36:40;11.52;;;6.68;;
68178;SDS011;69812;42.632;23.440;2023-09-30T04:39:05;10.90;;;6.35;;
68178;SDS011;69812;42.632;23.440;2023-09-30T04:41:31;15.93;;;7.00;;
68178;SDS011;69812;42.632;23.440;2023-09-30T04:43:56;13.23;;;6.45;;
68178;SDS011;69812;42.632;23.440;2023-09-30T04:46:22;13.43;;;7.18;;
68178;SDS011;69812;42.632;23.440;2023-09-30T04:48:48;12.75;;;6.53;;
68178;SDS011;69812;42.632;23.440;2023-09-30T04:51:17;11.75;;;6.30;;
68178;SDS011;69812;42.632;23.440;2023-09-30T04:53:47;10.45;;;6.47;;
68178;SDS011;69812;42.632;23.440;2023-09-30T04:56:13;12.50;;;6.13;;
68178;SDS011;69812;42.632;23.440;2023-09-30T04:58:38;11.60;;;6.32;;
68178;SDS011;69812;42.632;23.440;2023-09-30T05:01:03;12.52;;;6.30;;
68178;SDS011;69812;42.632;23.440;2023-09-30T05:03:29;13.00;;;5.25;;
68178;SDS011;69812;42.632;23.440;2023-09-30T05:05:54;12.57;;;6.10;;
68178;SDS011;69812;42.632;23.440;2023-09-30T05:08:20;14.57;;;5.82;;
68178;SDS011;69812;42.632;23.440;2023-09-30T05:10:50;10.35;;;6.03;;
68178;SDS011;69812;42.632;23.440;2023-09-30T05:13:15;9.65;;;5.20;;
68178;SDS011;69812;42.632;23.440;2023-09-30T05:15:41;9.93;;;5.53;;
68178;SDS011;69812;42.632;23.440;2023-09-30T05:18:07;10.90;;;5.15;;
68178;SDS011;69812;42.632;23.440;2023-09-30T05:20:37;10.70;;;5.50;;
68178;SDS011;69812;42.632;23.440;2023-09-30T05:23:04;10.40;;;4.82;;
68178;SDS011;69812;42.632;23.440;2023-09-30T05:25:32;10.55;;;5.05;;
68178;SDS011;69812;42.632;23.440;2023-09-30T05:27:57;11.70;;;5.38;;
68178;SDS011;69812;42.632;23.440;2023-09-30T05:30:22;8.73;;;4.97;;
68178;SDS011;69812;42.632;23.440;2023-09-30T05:32:48;14.55;;;5.75;;
68178;SDS011;69812;42.632;23.440;2023-09-30T05:35:17;12.63;;;5.68;;
68178;SDS011;69812;42.632;23.440;2023-09-30T05:37:43;11.02;;;5.75;;
68178;SDS011;69812;42.632;23.440;2023-09-30T05:40:10;15.80;;;6.20;;
68178;SDS011;69812;42.632;23.440;2023-09-30T05:42:46;11.63;;;5.85;;
68178;SDS011;69812;42.632;23.440;2023-09-30T05:45:12;12.95;;;5.93;;
68178;SDS011;69812;42.632;23.440;2023-09-30T05:47:40;17.23;;;6.78;;
68178;SDS011;69812;42.632;23.440;2023-09-30T05:50:06;12.38;;;5.40;;
68178;SDS011;69812;42.632;23.440;2023-09-30T05:52:33;12.85;;;5.95;;
68178;SDS011;69812;42.632;23.440;2023-09-30T05:54:58;14.60;;;5.95;;
68178;SDS011;69812;42.632;23.440;2023-09-30T05:57:26;12.30;;;6.00;;
68178;SDS011;69812;42.632;23.440;2023-09-30T05:59:51;12.45;;;6.30;;
68178;SDS011;69812;42.632;23.440;2023-09-30T06:02:17;12.50;;;7.07;;
68178;SDS011;69812;42.632;23.440;2023-09-30T06:04:42;11.02;;;6.13;;
68178;SDS011;69812;42.632;23.440;2023-09-30T06:07:08;11.23;;;6.85;;
68178;SDS011;69812;42.632;23.440;2023-09-30T06:09:36;13.57;;;7.25;;
68178;SDS011;69812;42.632;23.440;2023-09-30T06:12:01;14.60;;;7.00;;
68178;SDS011;69812;42.632;23.440;2023-09-30T06:14:28;11.45;;;7.32;;
68178;SDS011;69812;42.632;23.440;2023-09-30T06:16:56;13.70;;;6.75;;
68178;SDS011;69812;42.632;23.440;2023-09-30T06:19:21;11.43;;;6.80;;
68178;SDS011;69812;42.632;23.440;2023-09-30T06:21:46;12.07;;;7.45;;
68178;SDS011;69812;42.632;23.440;2023-09-30T06:24:12;15.57;;;6.75;;
68178;SDS011;69812;42.632;23.440;2023-09-30T06:26:37;15.80;;;7.18;;
68178;SDS011;69812;42.632;23.440;2023-09-30T06:29:03;15.85;;;6.78;;
68178;SDS011;69812;42.632;23.440;2023-09-30T06:31:28;12.88;;;6.85;;
68178;SDS011;69812;42.632;23.440;2023-09-30T06:33:58;14.32;;;7.15;;
68178;SDS011;69812;42.632;23.440;2023-09-30T06:36:25;17.48;;;7.03;;
68178;SDS011;69812;42.632;23.440;2023-09-30T06:38:51;22.70;;;7.10;;
68178;SDS011;69812;42.632;23.440;2023-09-30T06:41:17;13.65;;;7.05;;
68178;SDS011;69812;42.632;23.440;2023-09-30T06:43:43;13.63;;;6.88;;
68178;SDS011;69812;42.632;23.440;2023-09-30T06:46:09;14.05;;;6.95;;
68178;SDS011;69812;42.632;23.440;2023-09-30T06:48:37;16.55;;;7.68;;
68178;SDS011;69812;42.632;23.440;2023-09-30T06:51:05;15.65;;;6.60;;
68178;SDS011;69812;42.632;23.440;2023-09-30T06:53:30;18.20;;;7.15;;
68178;SDS011;69812;42.632;23.440;2023-09-30T06:55:56;15.73;;;6.40;;
68178;SDS011;69812;42.632;23.440;2023-09-30T06:58:21;13.73;;;6.35;;
68178;SDS011;69812;42.632;23.440;2023-09-30T07:00:47;10.80;;;6.32;;
68178;SDS011;69812;42.632;23.440;2023-09-30T07:03:15;14.30;;;6.15;;
68178;SDS011;69812;42.632;23.440;2023-09-30T07:08:06;19.20;;;6.50;;
68178;SDS011;69812;42.632;23.440;2023-09-30T07:10:31;15.55;;;6.53;;
68178;SDS011;69812;42.632;23.440;2023-09-30T07:12:57;14.73;;;6.63;;
68178;SDS011;69812;42.632;23.440;2023-09-30T07:15:22;14.77;;;7.10;;
68178;SDS011;69812;42.632;23.440;2023-09-30T07:17:48;18.23;;;5.82;;
68178;SDS011;69812;42.632;23.440;2023-09-30T07:20:14;12.50;;;6.80;;
68178;SDS011;69812;42.632;23.440;2023-09-30T07:22:40;18.80;;;7.28;;
68178;SDS011;69812;42.632;23.440;2023-09-30T07:25:06;14.02;;;6.35;;
68178;SDS011;69812;42.632;23.440;2023-09-30T07:27:32;10.48;;;6.25;;
68178;SDS011;69812;42.632;23.440;2023-09-30T07:29:57;12.25;;;6.35;;
68178;SDS011;69812;42.632;23.440;2023-09-30T07:32:23;12.93;;;6.38;;
68178;SDS011;69812;42.632;23.440;2023-09-30T07:34:51;13.80;;;6.70;;
68178;SDS011;69812;42.632;23.440;2023-09-30T07:37:16;15.65;;;6.38;;
68178;SDS011;69812;42.632;23.440;2023-09-30T07:42:08;12.50;;;6.03;;
68178;SDS011;69812;42.632;23.440;2023-09-30T07:44:34;12.98;;;6.00;;
68178;SDS011;69812;42.632;23.440;2023-09-30T07:47:02;12.18;;;6.15;;
68178;SDS011;69812;42.632;23.440;2023-09-30T07:49:33;14.18;;;6.10;;
68178;SDS011;69812;42.632;23.440;2023-09-30T07:51:59;11.88;;;5.65;;
68178;SDS011;69812;42.632;23.440;2023-09-30T07:54:24;13.18;;;6.10;;
68178;SDS011;69812;42.632;23.440;2023-09-30T07:56:50;11.30;;;5.68;;
68178;SDS011;69812;42.632;23.440;2023-09-30T07:59:15;13.88;;;5.25;;
68178;SDS011;69812;42.632;23.440;2023-09-30T08:01:41;10.95;;;5.97;;
68178;SDS011;69812;42.632;23.440;2023-09-30T08:04:06;11.98;;;5.50;;
68178;SDS011;69812;42.632;23.440;2023-09-30T08:06:32;10.90;;;5.25;;
68178;SDS011;69812;42.632;23.440;2023-09-30T08:08:58;9.70;;;4.78;;
68178;SDS011;69812;42.632;23.440;2023-09-30T08:11:23;13.10;;;5.93;;
68178;SDS011;69812;42.632;23.440;2023-09-30T08:13:52;12.40;;;5.35;;
68178;SDS011;69812;42.632;23.440;2023-09-30T08:16:18;10.70;;;5.10;;
68178;SDS011;69812;42.632;23.440;2023-09-30T08:18:44;10.57;;;5.10;;
68178;SDS011;69812;42.632;23.440;2023-09-30T08:21:09;11.20;;;5.78;;
68178;SDS011;69812;42.632;23.440;2023-09-30T08:23:38;13.18;;;4.72;;
68178;SDS011;69812;42.632;23.440;2023-09-30T08:26:04;9.15;;;4.93;;
68178;SDS011;69812;42.632;23.440;2023-09-30T08:31:04;12.25;;;5.07;;
68178;SDS011;69812;42.632;23.440;2023-09-30T08:33:31;8.60;;;4.88;;
68178;SDS011;69812;42.632;23.440;2023-09-30T08:36:06;13.23;;;5.13;;
68178;SDS011;69812;42.632;23.440;2023-09-30T08:38:36;11.48;;;5.05;;
68178;SDS011;69812;42.632;23.440;2023-09-30T08:41:03;9.65;;;5.00;;
68178;SDS011;69812;42.632;23.440;2023-09-30T08:43:29;14.60;;;5.03;;
68178;SDS011;69812;42.632;23.440;2023-09-30T08:45:57;8.98;;;4.97;;
68178;SDS011;69812;42.632;23.440;2023-09-30T08:48:23;17.52;;;5.55;;
68178;SDS011;69812;42.632;23.440;2023-09-30T08:50:51;10.52;;;5.47;;
68178;SDS011;69812;42.632;23.440;2023-09-30T08:53:19;12.23;;;5.90;;
68178;SDS011;69812;42.632;23.440;2023-09-30T08:55:45;11.98;;;6.63;;
68178;SDS011;69812;42.632;23.440;2023-09-30T08:58:14;9.20;;;6.80;;
68178;SDS011;69812;42.632;23.440;2023-09-30T09:00:40;12.98;;;7.35;;
68178;SDS011;69812;42.632;23.440;2023-09-30T09:03:07;17.15;;;7.15;;
68178;SDS011;69812;42.632;23.440;2023-09-30T09:05:33;13.95;;;7.18;;
68178;SDS011;69812;42.632;23.440;2023-09-30T09:07:59;14.35;;;6.85;;
68178;SDS011;69812;42.632;23.440;2023-09-30T09:10:24;10.75;;;6.93;;
68178;SDS011;69812;42.632;23.440;2023-09-30T09:12:56;10.57;;;6.93;;
68178;SDS011;69812;42.632;23.440;2023-09-30T09:15:24;10.95;;;6.47;;
68178;SDS011;69812;42.632;23.440;2023-09-30T09:17:50;13.48;;;6.78;;
68178;SDS011;69812;42.632;23.440;2023-09-30T09:20:21;11.30;;;6.85;;
68178;SDS011;69812;42.632;23.440;2023-09-30T09:22:49;18.38;;;6.88;;
68178;SDS011;69812;42.632;23.440;2023-09-30T09:25:20;10.95;;;6.55;;
68178;SDS011;69812;42.632;23.440;2023-09-30T09:27:48;10.52;;;6.38;;
68178;SDS011;69812;42.632;23.440;2023-09-30T09:30:14;13.70;;;6.40;;
68178;SDS011;69812;42.632;23.440;2023-09-30T09:32:54;12.90;;;6.78;;
68178;SDS011;69812;42.632;23.440;2023-09-30T09:35:22;9.60;;;5.20;;
68178;SDS011;69812;42.632;23.440;2023-09-30T09:38:00;9.50;;;5.50;;
68178;SDS011;69812;42.632;23.440;2023-09-30T09:40:46;11.38;;;5.90;;
68178;SDS011;69812;42.632;23.440;2023-09-30T09:43:11;12.38;;;5.57;;
68178;SDS011;69812;42.632;23.440;2023-09-30T09:45:37;10.48;;;5.55;;
68178;SDS011;69812;42.632;23.440;2023-09-30T09:48:06;12.55;;;5.43;;
68178;SDS011;69812;42.632;23.440;2023-09-30T09:50:32;12.20;;;5.82;;
68178;SDS011;69812;42.632;23.440;2023-09-30T09:52:58;11.50;;;5.28;;
68178;SDS011;69812;42.632;23.440;2023-09-30T09:55:28;10.05;;;5.45;;
68178;SDS011;69812;42.632;23.440;2023-09-30T09:57:53;10.13;;;5.20;;
68178;SDS011;69812;42.632;23.440;2023-09-30T10:00:22;14.02;;;5.32;;
68178;SDS011;69812;42.632;23.440;2023-09-30T10:02:50;10.07;;;4.78;;
68178;SDS011;69812;42.632;23.440;2023-09-30T10:05:17;10.23;;;5.15;;
68178;SDS011;69812;42.632;23.440;2023-09-30T10:10:15;8.75;;;5.40;;
68178;SDS011;69812;42.632;23.440;2023-09-30T10:12:43;9.98;;;5.13;;
68178;SDS011;69812;42.632;23.440;2023-09-30T10:20:28;6.95;;;4.00;;
68178;SDS011;69812;42.632;23.440;2023-09-30T10:25:41;6.55;;;3.65;;
68178;SDS011;69812;42.632;23.440;2023-09-30T10:31:22;6.32;;;4.20;;
68178;SDS011;69812;42.632;23.440;2023-09-30T10:36:46;8.20;;;4.70;;
68178;SDS011;69812;42.632;23.440;2023-09-30T10:39:12;10.27;;;3.75;;
68178;SDS011;69812;42.632;23.440;2023-09-30T10:46:59;7.47;;;3.50;;
68178;SDS011;69812;42.632;23.440;2023-09-30T10:49:46;8.45;;;3.97;;
68178;SDS011;69812;42.632;23.440;2023-09-30T10:52:12;7.15;;;3.47;;
68178;SDS011;69812;42.632;23.440;2023-09-30T10:54:50;6.03;;;3.13;;
68178;SDS011;69812;42.632;23.440;2023-09-30T10:57:29;4.88;;;3.70;;
68178;SDS011;69812;42.632;23.440;2023-09-30T11:00:08;8.02;;;3.47;;
68178;SDS011;69812;42.632;23.440;2023-09-30T11:02:46;8.45;;;3.00;;
68178;SDS011;69812;42.632;23.440;2023-09-30T11:05:16;6.47;;;3.15;;
68178;SDS011;69812;42.632;23.440;2023-09-30T11:07:42;5.38;;;3.10;;
68178;SDS011;69812;42.632;23.440;2023-09-30T11:10:11;12.45;;;4.10;;
68178;SDS011;69812;42.632;23.440;2023-09-30T11:12:40;5.93;;;3.40;;
68178;SDS011;69812;42.632;23.440;2023-09-30T11:15:21;6.82;;;3.30;;
68178;SDS011;69812;42.632;23.440;2023-09-30T11:17:46;8.43;;;3.67;;
68178;SDS011;69812;42.632;23.440;2023-09-30T11:20:12;6.95;;;3.63;;
68178;SDS011;69812;42.632;23.440;2023-09-30T11:22:37;8.15;;;4.13;;
68178;SDS011;69812;42.632;23.440;2023-09-30T11:25:04;6.60;;;3.40;;
68178;SDS011;69812;42.632;23.440;2023-09-30T11:27:30;8.45;;;4.40;;
68178;SDS011;69812;42.632;23.440;2023-09-30T11:32:24;9.90;;;3.60;;
68178;SDS011;69812;42.632;23.440;2023-09-30T11:34:54;6.53;;;3.55;;
68178;SDS011;69812;42.632;23.440;2023-09-30T11:37:20;6.75;;;3.47;;
68178;SDS011;69812;42.632;23.440;2023-09-30T11:39:46;8.00;;;4.35;;
68178;SDS011;69812;42.632;23.440;2023-09-30T11:42:15;7.18;;;3.85;;
68178;SDS011;69812;42.632;23.440;2023-09-30T11:44:46;7.47;;;4.00;;
68178;SDS011;69812;42.632;23.440;2023-09-30T11:49:43;9.57;;;3.38;;
68178;SDS011;69812;42.632;23.440;2023-09-30T11:52:13;10.18;;;5.65;;
68178;SDS011;69812;42.632;23.440;2023-09-30T11:54:42;8.80;;;5.13;;
68178;SDS011;69812;42.632;23.440;2023-09-30T11:57:15;8.07;;;3.97;;
68178;SDS011;69812;42.632;23.440;2023-09-30T11:59:41;8.48;;;4.32;;
68178;SDS011;69812;42.632;23.440;2023-09-30T12:02:14;6.13;;;3.97;;
68178;SDS011;69812;42.632;23.440;2023-09-30T12:07:06;12.77;;;4.50;;
68178;SDS011;69812;42.632;23.440;2023-09-30T12:09:33;10.95;;;4.45;;
68178;SDS011;69812;42.632;23.440;2023-09-30T12:12:02;8.18;;;5.20;;
68178;SDS011;69812;42.632;23.440;2023-09-30T12:16:55;7.07;;;4.55;;
68178;SDS011;69812;42.632;23.440;2023-09-30T12:19:23;7.63;;;4.85;;
68178;SDS011;69812;42.632;23.440;2023-09-30T12:21:51;6.50;;;4.72;;
68178;SDS011;69812;42.632;23.440;2023-09-30T12:24:17;7.43;;;4.82;;
68178;SDS011;69812;42.632;23.440;2023-09-30T12:26:46;9.77;;;4.75;;
68178;SDS011;69812;42.632;23.440;2023-09-30T12:29:14;8.07;;;4.60;;
68178;SDS011;69812;42.632;23.440;2023-09-30T12:31:46;8.10;;;4.80;;
68178;SDS011;69812;42.632;23.440;2023-09-30T12:34:15;9.48;;;5.00;;
68178;SDS011;69812;42.632;23.440;2023-09-30T12:36:42;8.85;;;4.55;;
68178;SDS011;69812;42.632;23.440;2023-09-30T12:39:08;8.75;;;4.13;;
68178;SDS011;69812;42.632;23.440;2023-09-30T12:41:38;7.20;;;4.75;;
68178;SDS011;69812;42.632;23.440;2023-09-30T12:44:07;9.38;;;4.90;;
68178;SDS011;69812;42.632;23.440;2023-09-30T12:49:05;7.93;;;4.57;;
68178;SDS011;69812;42.632;23.440;2023-09-30T12:51:36;7.90;;;4.78;;
68178;SDS011;69812;42.632;23.440;2023-09-30T12:54:02;7.25;;;4.72;;
68178;SDS011;69812;42.632;23.440;2023-09-30T12:56:27;7.13;;;4.20;;
68178;SDS011;69812;42.632;23.440;2023-09-30T12:58:54;7.45;;;4.22;;
68178;SDS011;69812;42.632;23.440;2023-09-30T13:01:20;7.55;;;4.40;;
68178;SDS011;69812;42.632;23.440;2023-09-30T13:03:48;8.50;;;3.80;;
68178;SDS011;69812;42.632;23.440;2023-09-30T13:06:16;9.52;;;4.55;;
68178;SDS011;69812;42.632;23.440;2023-09-30T13:08:42;9.38;;;4.35;;
68178;SDS011;69812;42.632;23.440;2023-09-30T13:11:08;9.02;;;4.03;;
68178;SDS011;69812;42.632;23.440;2023-09-30T13:13:33;7.55;;;4.72;;
68178;SDS011;69812;42.632;23.440;2023-09-30T13:16:00;8.68;;;5.05;;
68178;SDS011;69812;42.632;23.440;2023-09-30T13:18:26;8.48;;;4.38;;
68178;SDS011;69812;42.632;23.440;2023-09-30T13:20:51;6.97;;;4.30;;
68178;SDS011;69812;42.632;23.440;2023-09-30T13:23:20;7.10;;;4.20;;
68178;SDS011;69812;42.632;23.440;2023-09-30T13:25:45;7.32;;;4.35;;
68178;SDS011;69812;42.632;23.440;2023-09-30T13:28:12;9.88;;;4.18;;
68178;SDS011;69812;42.632;23.440;2023-09-30T13:30:38;7.55;;;3.90;;
68178;SDS011;69812;42.632;23.440;2023-09-30T13:33:04;7.57;;;3.35;;
68178;SDS011;69812;42.632;23.440;2023-09-30T13:35:30;6.53;;;4.25;;
68178;SDS011;69812;42.632;23.440;2023-09-30T13:37:55;7.45;;;4.22;;
68178;SDS011;69812;42.632;23.440;2023-09-30T13:40:21;9.50;;;4.28;;
68178;SDS011;69812;42.632;23.440;2023-09-30T13:42:49;8.32;;;4.40;;
68178;SDS011;69812;42.632;23.440;2023-09-30T13:45:14;8.63;;;4.82;;
68178;SDS011;69812;42.632;23.440;2023-09-30T13:47:42;8.90;;;4.47;;
68178;SDS011;69812;42.632;23.440;2023-09-30T13:50:08;9.10;;;4.28;;
68178;SDS011;69812;42.632;23.440;2023-09-30T13:52:34;9.70;;;4.63;;
68178;SDS011;69812;42.632;23.440;2023-09-30T13:55:02;8.95;;;4.28;;
68178;SDS011;69812;42.632;23.440;2023-09-30T13:57:30;6.88;;;4.63;;
68178;SDS011;69812;42.632;23.440;2023-09-30T13:59:58;6.75;;;4.28;;
68178;SDS011;69812;42.632;23.440;2023-09-30T14:02:23;9.13;;;4.95;;
68178;SDS011;69812;42.632;23.440;2023-09-30T14:04:49;7.80;;;4.70;;
68178;SDS011;69812;42.632;23.440;2023-09-30T14:07:14;7.40;;;4.25;;
68178;SDS011;69812;42.632;23.440;2023-09-30T14:09:43;8.80;;;4.53;;
68178;SDS011;69812;42.632;23.440;2023-09-30T14:12:09;7.82;;;4.28;;
68178;SDS011;69812;42.632;23.440;2023-09-30T14:14:37;8.00;;;4.00;;
68178;SDS011;69812;42.632;23.440;2023-09-30T14:17:03;9.85;;;4.60;;
68178;SDS011;69812;42.632;23.440;2023-09-30T14:19:36;7.70;;;4.53;;
68178;SDS011;69812;42.632;23.440;2023-09-30T14:22:03;8.70;;;4.00;;
68178;SDS011;69812;42.632;23.440;2023-09-30T14:24:34;8.50;;;4.35;;
68178;SDS011;69812;42.632;23.440;2023-09-30T14:29:27;10.00;;;4.18;;
68178;SDS011;69812;42.632;23.440;2023-09-30T14:31:53;8.70;;;3.88;;
68178;SDS011;69812;42.632;23.440;2023-09-30T14:34:18;8.68;;;3.88;;
68178;SDS011;69812;42.632;23.440;2023-09-30T14:36:44;6.32;;;3.90;;
68178;SDS011;69812;42.632;23.440;2023-09-30T14:39:10;12.32;;;4.53;;
68178;SDS011;69812;42.632;23.440;2023-09-30T14:41:35;6.22;;;4.03;;
68178;SDS011;69812;42.632;23.440;2023-09-30T14:44:01;9.43;;;4.00;;
68178;SDS011;69812;42.632;23.440;2023-09-30T14:46:26;6.43;;;4.28;;
68178;SDS011;69812;42.632;23.440;2023-09-30T14:48:52;8.43;;;3.97;;
68178;SDS011;69812;42.632;23.440;2023-09-30T14:51:18;8.82;;;4.28;;
68178;SDS011;69812;42.632;23.440;2023-09-30T14:53:46;9.20;;;4.18;;
68178;SDS011;69812;42.632;23.440;2023-09-30T14:56:15;9.23;;;3.75;;
68178;SDS011;69812;42.632;23.440;2023-09-30T14:58:42;6.00;;;3.47;;
68178;SDS011;69812;42.632;23.440;2023-09-30T15:01:08;8.07;;;4.22;;
68178;SDS011;69812;42.632;23.440;2023-09-30T15:03:34;6.32;;;3.58;;
68178;SDS011;69812;42.632;23.440;2023-09-30T15:06:02;6.93;;;4.03;;
68178;SDS011;69812;42.632;23.440;2023-09-30T15:08:29;9.88;;;4.10;;
68178;SDS011;69812;42.632;23.440;2023-09-30T15:11:03;5.85;;;3.92;;